Time;durP1;ratioP1;P1;durP2;ratioP2;P2;SDS_P1;SDS_P2;PMS_P1;PMS_P2;Temp;Humidity;BMP_temperature;BMP_pressure;BME280_temperature;BME280_humidity;BME280_pressure;Samples;Min_cycle;Max_cycle;Signal;HPM_P1;HPM_P2
2020/12/20 00:01:48;;;;;;;11.52;7.45;;;6.10;98.00;;;;;;5084802;28;20112;-75
2020/12/20 00:04:15;;;;;;;9.93;6.72;;;6.10;98.10;;;;;;5066413;28;20165;-75
2020/12/20 00:06:45;;;;;;;10.75;6.75;;;6.20;97.50;;;;;;5070408;28;20106;-84
2020/12/20 00:09:17;;;;;;;8.90;5.90;;;6.20;96.80;;;;;;5084276;28;20032;-77
2020/12/20 00:11:46;;;;;;;10.05;6.38;;;6.20;95.90;;;;;;5085654;28;20461;-84
2020/12/20 00:14:27;;;;;;;10.40;7.13;;;6.20;95.10;;;;;;5083209;28;20078;-78
2020/12/20 00:17:13;;;;;;;10.98;6.75;;;6.30;94.20;;;;;;5082767;28;20062;-81
2020/12/20 00:19:39;;;;;;;11.95;7.20;;;6.20;93.50;;;;;;5085662;28;20032;-71
2020/12/20 00:22:13;;;;;;;11.13;6.72;;;6.30;93.00;;;;;;5095444;28;20400;-83
2020/12/20 00:24:39;;;;;;;8.98;6.68;;;6.20;93.10;;;;;;5095532;28;20029;-82
2020/12/20 00:27:06;;;;;;;10.68;7.30;;;6.20;93.70;;;;;;5085162;28;20117;-85
2020/12/20 00:29:33;;;;;;;9.10;6.63;;;6.20;94.80;;;;;;5083930;28;20035;-70
2020/12/20 00:31:59;;;;;;;11.60;7.05;;;6.20;93.70;;;;;;5084850;28;20020;-84
2020/12/20 00:34:25;;;;;;;10.63;6.28;;;6.20;94.00;;;;;;5082352;28;20471;-87
2020/12/20 00:36:51;;;;;;;9.95;6.35;;;6.20;92.80;;;;;;5084240;28;20078;-79
2020/12/20 00:39:18;;;;;;;10.02;6.90;;;6.20;91.60;;;;;;5081469;28;20024;-82
2020/12/20 00:41:50;;;;;;;10.23;6.35;;;6.30;90.40;;;;;;5083852;28;20470;-81
2020/12/20 00:44:16;;;;;;;10.85;6.07;;;6.20;91.20;;;;;;5083363;28;20027;-78
2020/12/20 00:46:41;;;;;;;9.85;6.72;;;6.30;91.50;;;;;;5084615;28;20028;-83
2020/12/20 00:49:07;;;;;;;10.57;6.78;;;6.20;91.50;;;;;;5069383;28;20028;-74
2020/12/20 00:51:33;;;;;;;7.68;5.82;;;6.30;92.20;;;;;;5084936;28;20090;-77
2020/12/20 00:54:00;;;;;;;10.32;6.25;;;6.20;92.90;;;;;;5082321;28;20021;-75
2020/12/20 00:56:26;;;;;;;10.77;6.57;;;6.20;93.90;;;;;;5080787;28;20381;-83
2020/12/20 00:58:52;;;;;;;9.93;6.57;;;6.20;94.10;;;;;;5085543;28;20028;-75
2020/12/20 01:01:17;;;;;;;9.23;6.20;;;6.10;94.50;;;;;;5086748;28;20578;-83
2020/12/20 01:03:43;;;;;;;9.43;6.45;;;6.10;94.90;;;;;;5081742;28;20032;-76
2020/12/20 01:06:18;;;;;;;9.27;6.13;;;6.10;94.50;;;;;;5086498;28;20034;-87
2020/12/20 01:08:44;;;;;;;9.25;6.15;;;6.10;94.40;;;;;;5082781;28;20027;-84
2020/12/20 01:11:11;;;;;;;9.52;6.32;;;6.00;93.80;;;;;;5081675;28;20060;-84
2020/12/20 01:13:36;;;;;;;8.15;6.18;;;6.00;93.50;;;;;;5080587;28;20103;-84
2020/12/20 01:16:03;;;;;;;10.07;6.43;;;6.10;93.50;;;;;;5081681;28;20108;-74
2020/12/20 01:18:29;;;;;;;9.32;6.45;;;6.00;93.80;;;;;;5084773;28;20438;-89
2020/12/20 01:20:55;;;;;;;7.75;5.65;;;6.00;94.30;;;;;;5071848;28;20042;-86
2020/12/20 01:23:21;;;;;;;9.00;6.13;;;6.00;93.80;;;;;;5082693;28;20040;-83
2020/12/20 01:25:46;;;;;;;11.38;5.97;;;6.00;93.80;;;;;;5085058;28;20028;-81
2020/12/20 01:28:12;;;;;;;8.48;6.30;;;6.00;94.40;;;;;;5068495;28;20028;-82
2020/12/20 01:30:38;;;;;;;9.35;6.72;;;6.00;94.40;;;;;;5083266;28;20035;-84
2020/12/20 01:33:03;;;;;;;7.72;5.72;;;5.90;93.80;;;;;;5091788;28;20513;-82
2020/12/20 01:35:29;;;;;;;9.95;6.30;;;6.00;93.90;;;;;;5085339;28;20078;-86
2020/12/20 01:37:55;;;;;;;9.57;5.90;;;6.00;94.50;;;;;;5085362;28;20059;-84
2020/12/20 01:40:20;;;;;;;9.45;6.18;;;6.00;95.50;;;;;;5083936;28;20373;-83
2020/12/20 01:42:53;;;;;;;9.43;6.53;;;6.00;96.30;;;;;;5085649;28;20036;-83
2020/12/20 01:45:19;;;;;;;8.90;6.35;;;6.00;96.30;;;;;;5069177;28;20392;-84
2020/12/20 01:47:45;;;;;;;9.70;7.05;;;6.00;96.40;;;;;;5083957;28;20028;-77
2020/12/20 01:50:11;;;;;;;8.55;6.13;;;6.00;95.10;;;;;;5099692;28;20028;-83
2020/12/20 01:52:36;;;;;;;11.52;7.25;;;6.00;94.00;;;;;;5091486;28;20038;-82
2020/12/20 01:55:02;;;;;;;9.55;6.45;;;6.00;93.90;;;;;;5085227;28;20020;-81
2020/12/20 01:57:28;;;;;;;7.95;5.82;;;6.00;94.00;;;;;;5082931;28;20032;-85
2020/12/20 01:59:55;;;;;;;11.55;6.90;;;6.00;94.00;;;;;;5083458;28;20027;-82
2020/12/20 02:02:21;;;;;;;10.00;6.43;;;6.00;93.10;;;;;;5081236;28;20119;-84
2020/12/20 02:04:48;;;;;;;11.13;6.57;;;6.00;94.70;;;;;;5083669;28;20410;-85
2020/12/20 02:07:14;;;;;;;9.95;6.22;;;6.00;95.90;;;;;;5082480;28;20024;-78
2020/12/20 02:09:40;;;;;;;9.43;6.10;;;6.10;96.60;;;;;;5082765;28;20047;-80
2020/12/20 02:12:07;;;;;;;8.95;6.10;;;6.10;96.90;;;;;;5084762;28;20516;-74
2020/12/20 02:14:33;;;;;;;11.95;6.35;;;6.10;97.10;;;;;;5082682;28;20153;-85
2020/12/20 02:16:59;;;;;;;9.57;5.95;;;6.10;97.40;;;;;;5082258;28;20089;-84
2020/12/20 02:19:26;;;;;;;9.13;6.47;;;6.10;97.90;;;;;;5084085;28;20040;-82
2020/12/20 02:21:52;;;;;;;8.40;6.10;;;6.10;98.30;;;;;;5082039;28;20036;-82
2020/12/20 02:24:19;;;;;;;9.07;6.47;;;6.00;97.00;;;;;;5078380;28;20124;-87
2020/12/20 02:26:44;;;;;;;9.93;6.75;;;6.00;96.00;;;;;;5086761;28;20055;-82
2020/12/20 02:29:11;;;;;;;10.10;6.55;;;6.00;96.00;;;;;;5089211;28;20121;-84
2020/12/20 02:31:37;;;;;;;10.48;6.45;;;5.90;96.50;;;;;;5082935;28;20863;-82
2020/12/20 02:34:03;;;;;;;8.60;6.25;;;5.90;96.50;;;;;;5086443;28;20037;-84
2020/12/20 02:36:29;;;;;;;9.40;6.47;;;5.90;97.10;;;;;;5072268;28;20060;-83
2020/12/20 02:38:55;;;;;;;8.68;6.22;;;5.90;97.20;;;;;;5087352;28;20028;-86
2020/12/20 02:41:21;;;;;;;15.02;7.45;;;5.80;97.60;;;;;;5081704;28;20107;-84
2020/12/20 02:43:48;;;;;;;9.73;7.00;;;5.80;97.60;;;;;;5081664;28;20169;-85
2020/12/20 02:46:15;;;;;;;8.40;6.13;;;5.80;98.30;;;;;;5079552;28;20088;-78
2020/12/20 02:48:41;;;;;;;12.20;7.18;;;5.80;98.50;;;;;;5067070;28;20035;-85
2020/12/20 02:51:07;;;;;;;12.07;7.30;;;5.80;97.70;;;;;;5064394;28;20028;-84
2020/12/20 02:53:33;;;;;;;12.45;7.18;;;5.80;97.70;;;;;;5083943;28;20614;-84
2020/12/20 02:55:58;;;;;;;11.23;7.57;;;5.80;97.90;;;;;;5088317;28;20030;-85
2020/12/20 02:58:24;;;;;;;9.18;6.63;;;5.80;97.30;;;;;;5090751;28;20024;-84
2020/12/20 03:00:49;;;;;;;9.15;7.25;;;5.90;98.20;;;;;;5091865;28;20542;-85
2020/12/20 03:03:15;;;;;;;10.23;7.07;;;5.80;98.10;;;;;;5091184;28;20112;-77
2020/12/20 03:05:41;;;;;;;9.52;6.07;;;5.80;98.80;;;;;;5091168;28;20032;-74
2020/12/20 03:08:06;;;;;;;13.43;7.38;;;5.80;97.90;;;;;;5092047;28;20070;-85
2020/12/20 03:10:32;;;;;;;9.95;7.22;;;5.90;97.90;;;;;;5090654;28;20614;-84
2020/12/20 03:12:58;;;;;;;8.73;6.63;;;5.80;97.80;;;;;;5091004;28;20432;-84
2020/12/20 03:15:24;;;;;;;8.95;6.70;;;5.80;97.90;;;;;;5090485;28;20103;-83
2020/12/20 03:17:50;;;;;;;12.40;6.88;;;5.80;97.70;;;;;;5111697;28;20024;-83
2020/12/20 03:20:15;;;;;;;9.63;7.38;;;5.90;98.70;;;;;;5094189;28;20024;-77
2020/12/20 03:22:41;;;;;;;9.63;7.05;;;5.80;98.50;;;;;;5091653;28;20040;-83
2020/12/20 03:25:07;;;;;;;9.57;7.20;;;5.80;97.50;;;;;;5091328;28;20354;-84
2020/12/20 03:27:32;;;;;;;9.85;6.57;;;5.90;97.60;;;;;;5090341;28;20868;-84
2020/12/20 03:29:58;;;;;;;9.52;7.13;;;5.90;97.50;;;;;;5091207;28;20477;-84
2020/12/20 03:32:24;;;;;;;10.07;6.88;;;5.90;97.40;;;;;;5091064;28;20071;-84
2020/12/20 03:34:50;;;;;;;10.60;7.10;;;6.00;97.70;;;;;;5091216;28;20529;-83
2020/12/20 03:37:15;;;;;;;10.10;6.57;;;6.00;96.20;;;;;;5090846;28;20024;-77
2020/12/20 03:39:41;;;;;;;11.18;6.82;;;6.10;94.60;;;;;;5094022;28;20378;-84
2020/12/20 03:42:07;;;;;;;9.25;7.22;;;6.20;94.30;;;;;;5095445;28;20399;-83
2020/12/20 03:44:32;;;;;;;8.25;6.07;;;6.30;95.20;;;;;;5094406;28;20038;-84
2020/12/20 03:46:58;;;;;;;8.57;6.22;;;6.40;93.50;;;;;;5076917;28;20028;-84
2020/12/20 03:49:24;;;;;;;8.15;6.20;;;6.40;93.60;;;;;;5094614;28;20077;-83
2020/12/20 03:51:50;;;;;;;10.27;6.60;;;6.30;94.10;;;;;;5095057;28;20085;-84
2020/12/20 03:54:15;;;;;;;9.02;6.53;;;6.30;93.80;;;;;;5094474;28;20075;-76
2020/12/20 03:56:41;;;;;;;9.80;6.68;;;6.30;93.60;;;;;;5095277;28;20026;-84
2020/12/20 03:59:07;;;;;;;8.27;6.32;;;6.20;93.30;;;;;;5095036;28;20446;-81
2020/12/20 04:01:32;;;;;;;10.15;7.07;;;6.20;93.20;;;;;;5094505;28;20028;-82
2020/12/20 04:03:58;;;;;;;9.15;5.82;;;6.20;93.10;;;;;;5095208;28;20028;-85
2020/12/20 04:06:23;;;;;;;9.82;6.80;;;6.20;93.90;;;;;;5094190;28;20457;-81
2020/12/20 04:08:49;;;;;;;7.45;6.05;;;6.10;94.80;;;;;;5094527;28;20488;-84
2020/12/20 04:11:15;;;;;;;8.82;6.22;;;6.10;95.70;;;;;;5095044;28;20096;-75
2020/12/20 04:13:41;;;;;;;8.85;6.18;;;6.10;95.90;;;;;;5094101;28;20473;-81
2020/12/20 04:16:08;;;;;;;8.43;6.72;;;6.00;96.90;;;;;;5094609;28;20102;-85
2020/12/20 04:18:34;;;;;;;10.23;6.97;;;6.00;96.50;;;;;;5094179;28;20078;-85
2020/12/20 04:21:00;;;;;;;8.10;6.57;;;5.90;96.80;;;;;;5094566;28;20125;-82
2020/12/20 04:23:26;;;;;;;10.57;7.35;;;5.90;96.60;;;;;;5093729;28;20032;-84
2020/12/20 04:25:52;;;;;;;10.27;6.22;;;5.90;97.30;;;;;;5094212;28;20024;-83
2020/12/20 04:28:18;;;;;;;8.55;6.60;;;5.90;97.70;;;;;;5093652;28;20640;-74
2020/12/20 04:30:43;;;;;;;9.90;6.47;;;5.90;98.20;;;;;;5094215;28;20354;-83
2020/12/20 04:33:09;;;;;;;9.77;6.47;;;5.80;98.80;;;;;;5094367;28;20020;-83
2020/12/20 04:35:35;;;;;;;8.70;6.30;;;5.80;99.10;;;;;;5093563;28;20031;-82
2020/12/20 04:38:01;;;;;;;9.73;6.22;;;5.80;99.20;;;;;;5076173;28;20027;-83
2020/12/20 04:40:27;;;;;;;8.30;5.72;;;5.80;99.30;;;;;;5075353;28;20028;-83
2020/12/20 04:43:04;;;;;;;9.00;6.18;;;5.80;99.40;;;;;;5093852;28;20496;-82
2020/12/20 04:45:30;;;;;;;8.85;6.10;;;5.80;99.60;;;;;;5113659;28;20024;-68
2020/12/20 04:47:56;;;;;;;9.18;7.53;;;5.80;99.60;;;;;;5098535;28;20017;-83
2020/12/20 04:50:23;;;;;;;10.38;6.80;;;5.80;99.50;;;;;;5094060;28;20449;-83
2020/12/20 04:52:53;;;;;;;10.13;6.85;;;5.80;99.60;;;;;;5094980;28;20071;-84
2020/12/20 04:55:18;;;;;;;;;;;5.80;99.90;;;;;;5094156;28;20027;-75
2020/12/20 04:57:44;;;;;;;8.82;6.63;;;5.80;99.60;;;;;;5093621;28;19960;-82
2020/12/20 05:00:10;;;;;;;10.88;7.30;;;5.80;99.70;;;;;;5093640;28;20016;-74
2020/12/20 05:02:35;;;;;;;12.80;7.50;;;5.80;99.90;;;;;;5092439;28;20895;-84
2020/12/20 05:05:01;;;;;;;11.48;7.10;;;5.80;99.90;;;;;;5094070;28;20031;-83
2020/12/20 05:07:27;;;;;;;9.93;6.70;;;5.80;99.90;;;;;;5092677;28;20027;-82
2020/12/20 05:09:52;;;;;;;9.00;6.45;;;5.90;99.90;;;;;;5093359;28;20040;-83
2020/12/20 05:12:24;;;;;;;11.27;6.65;;;5.90;99.90;;;;;;5093457;28;20035;-75
2020/12/20 05:14:50;;;;;;;10.95;7.13;;;5.90;99.90;;;;;;5093431;28;20153;-81
2020/12/20 05:17:17;;;;;;;10.65;7.40;;;5.90;99.90;;;;;;5093460;28;20103;-85
2020/12/20 05:19:43;;;;;;;10.73;6.85;;;5.90;99.90;;;;;;5093511;28;20040;-81
2020/12/20 05:22:15;;;;;;;9.52;6.93;;;5.90;99.90;;;;;;5093303;28;20579;-81
2020/12/20 05:24:51;;;;;;;8.82;6.32;;;5.90;99.90;;;;;;5092978;28;20035;-83
2020/12/20 05:27:27;;;;;;;9.80;6.78;;;5.90;99.90;;;;;;5093331;28;20024;-82
2020/12/20 05:30:09;;;;;;;11.32;6.70;;;5.80;99.90;;;;;;5093186;28;20366;-84
2020/12/20 05:32:43;;;;;;;8.52;6.35;;;5.80;99.90;;;;;;5092028;28;20121;-84
2020/12/20 05:35:11;;;;;;;15.48;11.13;;;5.80;99.90;;;;;;5093276;28;20426;-85
2020/12/20 05:37:38;;;;;;;14.57;10.05;;;5.90;99.90;;;;;;5092089;28;20837;-84
2020/12/20 05:40:06;;;;;;;14.15;9.30;;;5.90;99.90;;;;;;5093064;28;20507;-84
2020/12/20 05:42:33;;;;;;;11.13;7.00;;;5.90;99.90;;;;;;5092198;28;20047;-84
2020/12/20 05:45:12;;;;;;;9.55;6.70;;;5.90;99.90;;;;;;5096208;28;20485;-81
2020/12/20 05:47:39;;;;;;;12.60;7.40;;;5.90;99.90;;;;;;5092079;28;20035;-82
2020/12/20 05:50:06;;;;;;;10.48;7.00;;;5.90;99.90;;;;;;5093419;28;20036;-84
2020/12/20 05:52:31;;;;;;;8.55;6.47;;;5.90;99.90;;;;;;5099159;28;20095;-83
2020/12/20 05:54:57;;;;;;;10.20;7.10;;;5.90;99.90;;;;;;5101125;28;20055;-77
2020/12/20 05:57:24;;;;;;;10.07;6.43;;;5.90;99.90;;;;;;5092455;28;20456;-85
2020/12/20 05:59:53;;;;;;;10.63;6.93;;;5.90;99.90;;;;;;5075418;28;20020;-84
2020/12/20 06:02:22;;;;;;;10.40;7.20;;;5.90;99.90;;;;;;5091860;28;20099;-75
2020/12/20 06:04:48;;;;;;;9.02;6.65;;;5.90;99.90;;;;;;5092700;28;20035;-83
2020/12/20 06:07:14;;;;;;;8.63;6.95;;;5.80;99.90;;;;;;5092620;28;20016;-83
2020/12/20 06:09:56;;;;;;;9.15;6.50;;;5.80;99.90;;;;;;5083338;28;20020;-82
2020/12/20 06:12:27;;;;;;;11.57;6.63;;;5.80;99.90;;;;;;5102214;28;20024;-74
2020/12/20 06:14:55;;;;;;;11.57;6.50;;;5.80;99.90;;;;;;5097191;28;20346;-84
2020/12/20 06:17:24;;;;;;;10.90;6.40;;;5.80;99.90;;;;;;5093645;28;20019;-75
2020/12/20 06:19:55;;;;;;;11.90;7.03;;;5.80;99.90;;;;;;5093096;28;20035;-86
2020/12/20 06:22:26;;;;;;;;;;;5.80;99.90;;;;;;5092633;28;20046;-78
2020/12/20 06:24:57;;;;;;;10.15;6.70;;;5.80;99.90;;;;;;5092596;28;20007;-84
2020/12/20 06:27:25;;;;;;;10.68;7.10;;;5.80;99.90;;;;;;5091750;28;20039;-78
2020/12/20 06:29:53;;;;;;;10.32;6.78;;;5.80;99.90;;;;;;5085547;28;20024;-82
2020/12/20 06:32:45;;;;;;;9.55;7.03;;;5.80;99.90;;;;;;5091670;28;20056;-80
2020/12/20 06:35:15;;;;;;;9.73;6.43;;;5.80;99.90;;;;;;5092256;28;20032;-82
2020/12/20 06:37:45;;;;;;;12.13;7.78;;;5.80;99.90;;;;;;5091476;28;20090;-82
2020/12/20 06:40:12;;;;;;;11.65;7.18;;;5.80;99.90;;;;;;5092007;28;20484;-83
2020/12/20 06:42:43;;;;;;;10.38;6.50;;;5.70;98.80;;;;;;5091084;28;20442;-81
2020/12/20 06:45:20;;;;;;;10.65;7.20;;;5.70;99.00;;;;;;5091719;28;20078;-82
2020/12/20 06:47:51;;;;;;;11.23;6.40;;;5.70;99.00;;;;;;5091152;28;20027;-77
2020/12/20 06:50:39;;;;;;;8.95;6.70;;;5.70;99.70;;;;;;5073481;28;20048;-82
2020/12/20 06:53:05;;;;;;;10.00;6.47;;;5.70;99.70;;;;;;5091068;28;20099;-82
2020/12/20 06:55:31;;;;;;;10.23;6.45;;;5.70;99.20;;;;;;5091085;28;20024;-82
2020/12/20 06:58:03;;;;;;;8.38;6.45;;;5.70;98.60;;;;;;5091529;28;20059;-79
2020/12/20 07:00:39;;;;;;;9.68;6.88;;;5.70;97.70;;;;;;5091123;28;20110;-79
2020/12/20 07:03:05;;;;;;;11.70;6.90;;;5.70;96.60;;;;;;5091749;28;20111;-78
2020/12/20 07:05:41;;;;;;;8.95;6.55;;;5.60;96.20;;;;;;5090250;28;20530;-81
2020/12/20 07:08:27;;;;;;;8.25;5.95;;;5.60;95.80;;;;;;5086436;28;20049;-81
2020/12/20 07:10:55;;;;;;;8.88;6.22;;;5.60;96.70;;;;;;5082825;28;20466;-84
2020/12/20 07:13:34;;;;;;;9.70;6.43;;;5.60;97.20;;;;;;5072435;28;20036;-81
2020/12/20 07:16:19;;;;;;;9.52;6.20;;;5.50;96.90;;;;;;5091375;28;20043;-79
2020/12/20 07:18:57;;;;;;;9.48;5.70;;;5.50;97.10;;;;;;5084140;28;20126;-81
2020/12/20 07:21:23;;;;;;;9.02;5.82;;;5.50;96.80;;;;;;5091332;28;20028;-75
2020/12/20 07:23:53;;;;;;;9.25;5.55;;;5.50;97.20;;;;;;5090984;28;20372;-82
2020/12/20 07:26:19;;;;;;;8.15;6.10;;;5.50;98.00;;;;;;5091721;28;20101;-88
2020/12/20 07:28:45;;;;;;;13.15;7.50;;;5.50;98.60;;;;;;5090380;28;20028;-88
2020/12/20 07:31:19;;;;;;;12.32;7.47;;;5.50;99.10;;;;;;5091963;28;20385;-73
2020/12/20 07:33:45;;;;;;;9.73;6.95;;;5.50;99.40;;;;;;5090202;28;20205;-77
2020/12/20 07:36:11;;;;;;;10.45;7.05;;;5.50;99.50;;;;;;5091376;28;20090;-79
2020/12/20 07:38:38;;;;;;;11.23;6.95;;;5.50;99.70;;;;;;5090331;28;20032;-78
2020/12/20 07:41:07;;;;;;;9.80;6.97;;;5.50;99.90;;;;;;5091682;28;20028;-66
2020/12/20 07:43:33;;;;;;;10.20;6.87;;;5.50;99.50;;;;;;5089767;28;20036;-67
2020/12/20 07:46:03;;;;;;;10.43;6.97;;;5.50;99.30;;;;;;5091133;28;20074;-66
2020/12/20 07:48:29;;;;;;;10.52;7.05;;;5.60;99.70;;;;;;5090193;28;20028;-68
2020/12/20 07:51:16;;;;;;;14.13;6.53;;;5.60;99.90;;;;;;5090554;28;20090;-65
2020/12/20 07:53:53;;;;;;;9.43;6.72;;;5.60;99.90;;;;;;5089876;28;20032;-68
2020/12/20 07:56:33;;;;;;;10.65;6.65;;;5.70;99.90;;;;;;5091224;28;20081;-64
2020/12/20 07:59:06;;;;;;;9.25;6.70;;;5.70;99.10;;;;;;5090724;28;20032;-67
2020/12/20 08:01:32;;;;;;;11.07;7.13;;;5.70;99.10;;;;;;5090831;28;20465;-68
2020/12/20 08:04:02;;;;;;;8.57;5.88;;;5.80;99.30;;;;;;5090485;28;20071;-67
2020/12/20 08:06:29;;;;;;;13.15;6.72;;;5.90;98.90;;;;;;5087796;28;20079;-75
2020/12/20 08:09:02;;;;;;;7.53;5.82;;;5.90;98.50;;;;;;5093548;28;20032;-80
2020/12/20 08:11:29;;;;;;;11.35;7.85;;;5.90;98.40;;;;;;5091332;28;20473;-77
2020/12/20 08:13:57;;;;;;;17.10;8.77;;;6.00;98.80;;;;;;5072893;28;20430;-82
2020/12/20 08:16:26;;;;;;;13.57;8.38;;;6.10;98.70;;;;;;5090961;28;20052;-80
2020/12/20 08:18:55;;;;;;;11.87;7.90;;;6.20;98.30;;;;;;5089978;28;20035;-84
2020/12/20 08:21:32;;;;;;;12.38;7.20;;;6.20;98.20;;;;;;5090880;28;20112;-81
2020/12/20 08:23:59;;;;;;;12.05;7.18;;;6.30;98.40;;;;;;5079484;28;20512;-84
2020/12/20 08:26:33;;;;;;;11.27;6.63;;;6.40;98.30;;;;;;5070257;28;20058;-78
2020/12/20 08:28:59;;;;;;;10.48;6.47;;;6.40;97.80;;;;;;5068919;28;20033;-80
2020/12/20 08:31:29;;;;;;;13.05;6.50;;;6.50;97.00;;;;;;5085632;28;20033;-76
2020/12/20 08:33:56;;;;;;;8.38;5.97;;;6.50;95.70;;;;;;5086745;28;20028;-75
2020/12/20 08:36:23;;;;;;;10.38;7.10;;;6.60;95.40;;;;;;5087002;28;20081;-90
2020/12/20 08:38:49;;;;;;;9.93;7.05;;;6.60;94.20;;;;;;5086929;28;20437;-85
2020/12/20 08:41:22;;;;;;;10.68;6.93;;;6.60;92.50;;;;;;5085463;28;20078;-80
2020/12/20 08:43:48;;;;;;;10.07;6.30;;;6.60;91.80;;;;;;5086841;28;20052;-83
2020/12/20 08:46:31;;;;;;;10.43;7.28;;;6.70;92.70;;;;;;5079853;28;20043;-82
2020/12/20 08:49:17;;;;;;;12.10;8.80;;;6.70;93.10;;;;;;5086572;28;20088;-77
2020/12/20 08:51:44;;;;;;;10.75;7.85;;;6.80;92.60;;;;;;5082530;28;20032;-85
2020/12/20 08:54:11;;;;;;;11.70;7.45;;;6.80;91.30;;;;;;5087849;28;20412;-82
2020/12/20 08:56:57;;;;;;;11.07;7.75;;;6.90;91.20;;;;;;5081116;28;20028;-74
2020/12/20 08:59:34;;;;;;;10.02;7.25;;;6.90;91.30;;;;;;5086983;28;20076;-81
2020/12/20 09:02:02;;;;;;;10.85;6.93;;;6.90;91.70;;;;;;5086987;28;20025;-78
2020/12/20 09:04:34;;;;;;;9.85;7.32;;;7.00;91.20;;;;;;5083533;28;20370;-74
2020/12/20 09:07:06;;;;;;;8.52;6.95;;;7.00;90.50;;;;;;5070264;28;20051;-76
2020/12/20 09:09:32;;;;;;;11.70;7.63;;;7.10;90.90;;;;;;5085190;28;20040;-76
2020/12/20 09:12:19;;;;;;;11.45;7.82;;;7.10;90.10;;;;;;5084545;28;20040;-76
2020/12/20 09:15:10;;;;;;;12.98;9.30;;;7.10;89.40;;;;;;5084993;28;20103;-75
2020/12/20 09:17:39;;;;;;;13.15;9.63;;;7.10;88.70;;;;;;5080447;28;20051;-75
2020/12/20 09:20:08;;;;;;;10.00;7.75;;;7.20;88.10;;;;;;5085806;28;20420;-77
2020/12/20 09:22:38;;;;;;;11.33;7.33;;;7.20;87.20;;;;;;5083939;28;20029;-72
2020/12/20 09:25:04;;;;;;;10.25;7.25;;;7.30;87.60;;;;;;5084159;28;20029;-74
2020/12/20 09:27:36;;;;;;;12.23;6.93;;;7.40;87.80;;;;;;5067613;28;20060;-75
2020/12/20 09:30:05;;;;;;;9.02;6.60;;;7.60;86.60;;;;;;5067346;28;20024;-78
2020/12/20 09:32:40;;;;;;;9.57;6.43;;;7.80;86.10;;;;;;5082639;28;20024;-76
2020/12/20 09:35:08;;;;;;;10.93;7.28;;;7.90;84.80;;;;;;5080889;28;20477;-78
2020/12/20 09:37:41;;;;;;;10.88;7.00;;;8.10;83.40;;;;;;5084852;28;20052;-75
2020/12/20 09:40:08;;;;;;;10.85;7.22;;;8.20;82.10;;;;;;5083601;28;20029;-76
2020/12/20 09:42:41;;;;;;;9.55;6.90;;;8.30;81.20;;;;;;5079936;28;20028;-76
2020/12/20 09:45:10;;;;;;;10.00;7.20;;;8.30;81.00;;;;;;5086724;28;20051;-76
2020/12/20 09:47:43;;;;;;;10.15;7.05;;;8.40;81.40;;;;;;5088490;28;20028;-77
2020/12/20 09:50:11;;;;;;;9.02;6.35;;;8.40;81.10;;;;;;5088107;28;20054;-75
2020/12/20 09:52:39;;;;;;;9.70;6.38;;;8.50;80.70;;;;;;5081018;28;20393;-75
2020/12/20 09:55:07;;;;;;;12.27;7.55;;;8.50;79.80;;;;;;5083272;28;20063;-82
2020/12/20 09:57:33;;;;;;;10.23;6.20;;;8.50;79.30;;;;;;5084925;28;20028;-78
2020/12/20 09:59:59;;;;;;;12.68;7.35;;;8.60;78.30;;;;;;5084165;28;20024;-81
2020/12/20 10:02:25;;;;;;;10.43;7.07;;;8.60;78.40;;;;;;5082657;28;20065;-83
2020/12/20 10:04:51;;;;;;;9.10;6.75;;;8.60;78.90;;;;;;5066546;28;20457;-79
2020/12/20 10:07:16;;;;;;;8.80;7.00;;;8.70;78.20;;;;;;5083496;28;20020;-79
2020/12/20 10:09:42;;;;;;;8.98;6.85;;;8.80;78.40;;;;;;5079280;28;20346;-76
2020/12/20 10:12:08;;;;;;;8.23;7.10;;;8.80;78.50;;;;;;5082459;28;20082;-82
2020/12/20 10:14:34;;;;;;;10.38;7.40;;;8.80;77.20;;;;;;5083489;28;20473;-78
2020/12/20 10:17:00;;;;;;;8.82;7.22;;;8.90;77.60;;;;;;5075176;28;20028;-79
2020/12/20 10:19:26;;;;;;;12.85;7.85;;;8.90;77.50;;;;;;5081682;28;20530;-82
2020/12/20 10:21:53;;;;;;;11.13;7.28;;;9.00;77.20;;;;;;5080607;28;20053;-90
2020/12/20 10:24:19;;;;;;;10.43;7.90;;;9.00;77.70;;;;;;5079371;28;20447;-87
2020/12/20 10:26:46;;;;;;;10.75;7.57;;;9.00;77.10;;;;;;5083526;28;20071;-81
2020/12/20 10:29:15;;;;;;;8.60;7.03;;;9.10;77.30;;;;;;5079140;28;20082;-79
2020/12/20 10:31:46;;;;;;;13.02;8.35;;;9.10;77.80;;;;;;5079946;28;20016;-83
2020/12/20 10:34:13;;;;;;;12.05;7.45;;;9.10;78.10;;;;;;5081124;28;20083;-83
2020/12/20 10:36:39;;;;;;;10.70;8.32;;;9.10;78.10;;;;;;5087877;28;20052;-77
2020/12/20 10:39:06;;;;;;;10.15;7.93;;;9.10;77.50;;;;;;5089373;28;20016;-81
2020/12/20 10:41:39;;;;;;;11.20;9.15;;;9.20;78.00;;;;;;5082024;28;20028;-84
2020/12/20 10:44:08;;;;;;;10.40;8.23;;;9.20;78.10;;;;;;5079679;28;20044;-85
2020/12/20 10:46:34;;;;;;;11.18;7.80;;;9.20;78.10;;;;;;5067279;28;20063;-86
2020/12/20 10:49:01;;;;;;;10.52;7.90;;;9.20;78.30;;;;;;5081575;28;20032;-82
2020/12/20 10:51:27;;;;;;;9.38;7.50;;;9.10;78.20;;;;;;5083954;28;20016;-84
2020/12/20 10:53:53;;;;;;;8.52;7.38;;;9.10;79.60;;;;;;5076852;28;20036;-80
2020/12/20 10:56:19;;;;;;;10.20;7.63;;;9.10;80.60;;;;;;5078446;28;20469;-83
2020/12/20 10:58:47;;;;;;;12.90;8.65;;;9.10;79.70;;;;;;5066010;28;20108;-84
2020/12/20 11:01:20;;;;;;;15.02;8.02;;;9.10;79.00;;;;;;5081326;28;20354;-84
2020/12/20 11:03:50;;;;;;;12.10;8.82;;;9.20;79.50;;;;;;5083409;28;20089;-76
2020/12/20 11:06:20;;;;;;;13.90;7.78;;;9.20;78.90;;;;;;5080029;28;20016;-79
2020/12/20 11:08:46;;;;;;;10.63;8.52;;;9.20;78.00;;;;;;5071962;28;20042;-78
2020/12/20 11:11:13;;;;;;;11.63;8.43;;;9.20;77.60;;;;;;5065023;28;20414;-82
2020/12/20 11:13:42;;;;;;;10.70;7.63;;;9.20;77.70;;;;;;5083452;28;20388;-78
2020/12/20 11:16:16;;;;;;;12.13;8.30;;;9.30;78.20;;;;;;5078271;28;20033;-75
2020/12/20 11:18:45;;;;;;;10.38;7.70;;;9.40;78.50;;;;;;5076373;28;20093;-84
2020/12/20 11:21:15;;;;;;;12.05;7.55;;;9.50;77.40;;;;;;5080365;28;20036;-82
2020/12/20 11:23:42;;;;;;;10.60;8.05;;;9.60;77.00;;;;;;5078780;28;20119;-81
2020/12/20 11:26:13;;;;;;;10.93;7.82;;;9.80;76.60;;;;;;5074675;28;20075;-77
2020/12/20 11:28:44;;;;;;;8.85;7.57;;;9.90;77.10;;;;;;5076842;28;20104;-76
2020/12/20 11:31:14;;;;;;;14.05;8.40;;;9.90;77.00;;;;;;5078781;28;20032;-86
2020/12/20 11:33:41;;;;;;;15.15;10.82;;;10.00;75.70;;;;;;5080923;28;20025;-74
2020/12/20 11:36:06;;;;;;;15.77;10.32;;;10.20;75.00;;;;;;5079083;28;20036;-79
2020/12/20 11:38:33;;;;;;;13.98;9.35;;;10.20;74.30;;;;;;5076965;28;20462;-87
2020/12/20 11:41:00;;;;;;;12.35;9.00;;;10.20;74.20;;;;;;5082183;28;20021;-76
2020/12/20 11:43:25;;;;;;;12.77;8.73;;;10.20;74.10;;;;;;5078769;28;20056;-84
2020/12/20 11:45:51;;;;;;;12.95;9.15;;;10.20;74.60;;;;;;5061888;28;20035;-82
2020/12/20 11:48:17;;;;;;;10.38;8.85;;;10.10;74.80;;;;;;5081323;28;20044;-81
2020/12/20 11:50:43;;;;;;;15.35;9.00;;;10.20;74.20;;;;;;5078695;28;20036;-82
2020/12/20 11:53:09;;;;;;;13.32;8.88;;;10.20;74.50;;;;;;5080387;28;20611;-80
2020/12/20 11:55:35;;;;;;;14.23;8.48;;;10.20;74.30;;;;;;5078136;28;20478;-80
2020/12/20 11:58:01;;;;;;;11.32;8.68;;;10.20;74.10;;;;;;5083766;28;20036;-78
2020/12/20 12:00:28;;;;;;;12.95;9.65;;;10.30;73.80;;;;;;5083277;28;20024;-81
2020/12/20 12:02:54;;;;;;;13.07;9.43;;;10.30;73.70;;;;;;5087864;28;20047;-80
2020/12/20 12:05:21;;;;;;;13.00;9.25;;;10.30;73.30;;;;;;5099535;28;20036;-75
2020/12/20 12:07:47;;;;;;;13.60;9.40;;;10.30;73.00;;;;;;5087740;28;20032;-81
2020/12/20 12:10:12;;;;;;;16.52;8.68;;;10.30;72.50;;;;;;5087303;28;20034;-76
2020/12/20 12:12:40;;;;;;;11.18;9.07;;;10.40;72.80;;;;;;5086347;28;20461;-76
2020/12/20 12:15:06;;;;;;;27.70;19.13;;;10.40;72.10;;;;;;5083025;28;20032;-81
2020/12/20 12:17:32;;;;;;;13.32;9.68;;;10.40;72.80;;;;;;5086268;28;20117;-85
2020/12/20 12:19:58;;;;;;;11.45;8.50;;;10.40;72.30;;;;;;5084160;28;20069;-84
2020/12/20 12:22:24;;;;;;;12.50;8.48;;;10.40;71.80;;;;;;5085263;28;20028;-81
2020/12/20 12:24:49;;;;;;;11.23;8.13;;;10.40;72.00;;;;;;5072196;28;20469;-83
2020/12/20 12:27:15;;;;;;;11.18;8.20;;;10.40;72.10;;;;;;5083666;28;20458;-80
2020/12/20 12:29:41;;;;;;;12.38;8.38;;;10.40;71.90;;;;;;5082001;28;20032;-76
2020/12/20 12:32:07;;;;;;;10.95;8.45;;;10.50;72.00;;;;;;5085070;28;20024;-85
2020/12/20 12:34:33;;;;;;;11.25;9.00;;;10.50;72.70;;;;;;5084874;28;20054;-80
2020/12/20 12:36:58;;;;;;;13.48;8.90;;;10.40;72.20;;;;;;5083024;28;20648;-82
2020/12/20 12:39:24;;;;;;;10.93;8.80;;;10.40;72.10;;;;;;5084015;28;20425;-78
2020/12/20 12:41:50;;;;;;;22.70;11.45;;;10.40;72.90;;;;;;5084655;28;20028;-81
2020/12/20 12:44:16;;;;;;;13.60;8.60;;;10.30;76.50;;;;;;5084436;28;20063;-82
2020/12/20 12:46:46;;;;;;;12.43;8.82;;;10.30;72.40;;;;;;5082082;28;20088;-79
2020/12/20 12:49:12;;;;;;;14.27;9.20;;;10.20;72.90;;;;;;5084341;28;20037;-81
2020/12/20 12:51:40;;;;;;;25.60;13.43;;;10.20;73.30;;;;;;5085948;28;20548;-77
2020/12/20 12:54:06;;;;;;;33.20;18.80;;;10.20;78.20;;;;;;5084212;28;20249;-82
2020/12/20 12:56:31;;;;;;;11.48;9.00;;;10.10;75.20;;;;;;5083495;28;20474;-83